Etusivu
METAR-TAF:

METAR-TAF

Lentoasemat :

Wittman Regional Airport

Oshkosh, Wisconsin, Yhdysvallat

Leveyspiiri: 43-58-00N, Pituuspiiri: 088-33-29W, korkeus merenpinnasta: 246 m

Tämänhetkinen sää

Tämä raportti tehtiin 8 minuuttia sitten, kello 16.53 UTC
Tuuli 4 kn kaakosta
Lämpötila 23°C
Kosteus 47%
Ilmanpaine 1017 hPa
Näkyvyys: 16.1 km
selkeää

METAR: KOSH 191653Z 13004KT 10SM CLR 23/11 A3004 RMK AO2 SLP162 T02280106

Aika: 12:01 (17:01 UTC)


TAF: puuttuu

Säähavainnot ja -ennusteet yli 4000 lentoasemalta (METAR- ja TAF-raportit).

Käytössä olevat sääasemat on merkitty karttaan keltaisilla ja punaisilla pisteillä.

Aseta hiiri pisteen päälle nähdäksesi sääaseman nimen.

Klikkaa sitten nähdäksesi säähavainnot ja -ennusteet.

Kartan vaihtaminen: klikkaa mustalla rastilla varustettuja vihreitä pisteitä, niin voit zoomata sisään; viivalla varustettua vihreää pistettä, niin voit zoomata ulos tai vihreitä nuolia, niin pääset viereisille kartoille.


METAR-TAF: